createdAt,value
2018-06-04T00:00:44.914Z,23.95
2018-06-04T00:01:44.689Z,23.96
2018-06-04T00:02:44.969Z,23.87
2018-06-04T00:03:45.003Z,23.84
2018-06-04T00:04:45.022Z,23.81
2018-06-04T00:05:45.059Z,23.88
2018-06-04T00:06:44.825Z,23.92
2018-06-04T00:07:44.849Z,23.95
2018-06-04T00:08:45.125Z,23.92
2018-06-04T00:09:45.208Z,23.91
2018-06-04T00:10:44.926Z,23.87
2018-06-04T00:11:44.702Z,23.84
2018-06-04T00:12:44.994Z,23.66
2018-06-04T00:13:45.006Z,23.76
2018-06-04T00:14:45.037Z,23.73
2018-06-04T00:15:45.101Z,23.73
2018-06-04T00:16:45.087Z,23.76
2018-06-04T00:17:45.382Z,23.73
2018-06-04T00:18:45.145Z,23.69
2018-06-04T00:19:45.433Z,23.76
2018-06-04T00:20:45.212Z,23.83
2018-06-04T00:21:45.515Z,23.8
2018-06-04T00:22:45.517Z,23.83
2018-06-04T00:23:45.532Z,23.86
2018-06-04T00:24:45.609Z,23.84
2018-06-04T00:25:45.591Z,23.83
2018-06-04T00:26:45.612Z,23.8
2018-06-04T00:27:45.379Z,23.71
2018-06-04T00:28:45.407Z,23.69
2018-06-04T00:29:45.688Z,23.73
2018-06-04T00:30:45.736Z,23.69
2018-06-04T00:31:45.742Z,23.69
2018-06-04T00:32:45.510Z,23.73
2018-06-04T00:33:45.790Z,23.73
2018-06-04T00:34:45.812Z,23.76
2018-06-04T00:35:45.854Z,23.62
2018-06-04T00:36:45.869Z,23.62
2018-06-04T00:37:45.889Z,23.61
2018-06-04T00:38:45.660Z,23.55
2018-06-04T00:39:45.481Z,23.5
2018-06-04T00:40:45.460Z,23.5
2018-06-04T00:41:45.990Z,23.61
2018-06-04T00:42:46.019Z,23.58
2018-06-04T00:43:46.042Z,23.58
2018-06-04T00:44:45.868Z,23.58
2018-06-04T00:45:45.841Z,23.55
2018-06-04T00:46:45.873Z,23.59
2018-06-04T00:47:45.895Z,23.48
2018-06-04T00:48:46.202Z,23.36
2018-06-04T00:49:46.254Z,23.32
2018-06-04T00:50:46.227Z,23.41
2018-06-04T00:51:46.253Z,23.47
2018-06-04T00:52:46.026Z,23.55
2018-06-04T00:53:45.798Z,23.47
2018-06-04T00:54:46.079Z,23.36
2018-06-04T00:55:46.109Z,23.48
2018-06-04T00:56:46.407Z,23.47
2018-06-04T00:57:46.164Z,23.48
2018-06-04T00:58:46.187Z,23.44
2018-06-04T00:59:46.210Z,23.34
2018-06-04T01:00:46.502Z,23.4
2018-06-04T01:01:46.515Z,23.4
2018-06-04T01:02:46.544Z,23.5
2018-06-04T01:03:46.586Z,23.34
2018-06-04T01:04:46.645Z,23.36
2018-06-04T01:05:46.369Z,23.27
2018-06-04T01:06:46.394Z,23.28
2018-06-04T01:07:46.420Z,23.24
2018-06-04T01:08:46.703Z,23.23
2018-06-04T01:09:46.727Z,23.15
2018-06-04T01:10:46.755Z,23.15
2018-06-04T01:11:46.775Z,23.15
2018-06-04T01:12:46.804Z,23.13
2018-06-04T01:13:46.817Z,23.2
2018-06-04T01:14:46.856Z,23.13
2018-06-04T01:15:46.868Z,23.2
2018-06-04T01:16:46.402Z,23.12
2018-06-04T01:17:46.686Z,23.15
2018-06-04T01:18:46.703Z,23.13
2018-06-04T01:19:46.778Z,23.06
2018-06-04T01:20:46.757Z,23.09
2018-06-04T01:21:46.823Z,23.08
2018-06-04T01:22:47.058Z,23.12
2018-06-04T01:23:47.089Z,23.08
2018-06-04T01:24:47.209Z,22.96
2018-06-04T01:25:47.133Z,22.94
2018-06-04T01:26:46.905Z,22.94
2018-06-04T01:27:47.227Z,22.9
2018-06-04T01:28:47.213Z,22.94
2018-06-04T01:29:46.986Z,22.93
2018-06-04T01:30:47.252Z,22.88
2018-06-04T01:31:47.287Z,22.93
2018-06-04T01:32:46.806Z,22.99
2018-06-04T01:33:47.089Z,22.81
2018-06-04T01:34:47.420Z,22.84
2018-06-04T01:35:47.154Z,22.87
2018-06-04T01:36:47.421Z,22.87
2018-06-04T01:37:47.446Z,22.85
2018-06-04T01:38:47.476Z,22.84
2018-06-04T01:39:47.498Z,22.88
2018-06-04T01:40:47.520Z,22.87
2018-06-04T01:41:47.561Z,22.76
2018-06-04T01:42:47.319Z,22.88
2018-06-04T01:43:47.639Z,22.81
2018-06-04T01:44:47.372Z,22.8
2018-06-04T01:45:47.391Z,22.75
2018-06-04T01:46:47.416Z,22.76
2018-06-04T01:47:47.696Z,22.62
2018-06-04T01:48:47.466Z,22.73
2018-06-04T01:49:47.792Z,22.68
2018-06-04T01:50:47.262Z,22.47
2018-06-04T01:51:47.550Z,22.54
2018-06-04T01:52:47.821Z,22.63
2018-06-04T01:53:47.604Z,22.54
2018-06-04T01:54:47.877Z,22.6
2018-06-04T01:55:47.903Z,22.51
2018-06-04T01:56:47.930Z,22.62
2018-06-04T01:57:47.700Z,22.57
2018-06-04T01:58:47.981Z,22.57
2018-06-04T01:59:48.008Z,22.6
2018-06-04T02:00:47.790Z,22.62
2018-06-04T02:01:47.805Z,22.63
2018-06-04T02:02:48.091Z,22.6
2018-06-04T02:03:48.105Z,22.57
2018-06-04T02:04:47.934Z,22.41
2018-06-04T02:05:48.160Z,22.48
2018-06-04T02:06:48.191Z,22.48
2018-06-04T02:07:48.210Z,22.51
2018-06-04T02:08:47.981Z,22.44
2018-06-04T02:09:48.272Z,22.5
2018-06-04T02:10:48.305Z,22.44
2018-06-04T02:11:48.292Z,22.57
2018-06-04T02:12:48.318Z,22.54
2018-06-04T02:13:48.093Z,22.39
2018-06-04T02:14:48.367Z,22.5
2018-06-04T02:15:48.404Z,22.44
2018-06-04T02:16:48.415Z,22.5
2018-06-04T02:17:48.448Z,22.53
2018-06-04T02:18:48.235Z,22.54
2018-06-04T02:19:48.682Z,22.48
2018-06-04T02:20:48.293Z,22.48
2018-06-04T02:21:48.313Z,22.5
2018-06-04T02:22:48.339Z,22.5
2018-06-04T02:23:48.620Z,22.45
2018-06-04T02:24:48.645Z,22.47
2018-06-04T02:25:48.670Z,22.35
2018-06-04T02:26:48.445Z,22.44
2018-06-04T02:27:48.462Z,22.45
2018-06-04T02:28:48.235Z,22.44
2018-06-04T02:29:48.250Z,22.36
2018-06-04T02:30:48.791Z,22.29
2018-06-04T02:31:48.807Z,22.2
2018-06-04T02:32:48.845Z,22.2
2018-06-04T02:33:48.867Z,22.22
2018-06-04T02:34:48.704Z,22.15
2018-06-04T02:35:48.922Z,22.23
2018-06-04T02:36:48.947Z,22.22
2018-06-04T02:37:48.973Z,22.23
2018-06-04T02:38:48.747Z,22.23
2018-06-04T02:39:49.020Z,22.11
2018-06-04T02:40:49.047Z,22.13
2018-06-04T02:41:48.818Z,22.14
2018-06-04T02:42:49.115Z,22.11
2018-06-04T02:43:48.864Z,22.17
2018-06-04T02:44:48.893Z,22.14
2018-06-04T02:45:49.166Z,22.18
2018-06-04T02:46:49.192Z,22.14
2018-06-04T02:47:48.960Z,22.15
2018-06-04T02:48:48.984Z,22.14
2018-06-04T02:49:49.425Z,22.11
2018-06-04T02:50:49.299Z,22.13
2018-06-04T02:51:49.070Z,22.02
2018-06-04T02:52:49.357Z,22
2018-06-04T02:53:49.120Z,22.02
2018-06-04T02:54:49.245Z,22.08
2018-06-04T02:55:49.425Z,21.99
2018-06-04T02:56:49.450Z,21.99
2018-06-04T02:57:49.472Z,21.91
2018-06-04T02:58:49.511Z,21.92
2018-06-04T02:59:49.517Z,21.88
2018-06-04T03:00:49.560Z,21.82
2018-06-04T03:01:49.616Z,21.8
2018-06-04T03:02:49.432Z,21.82
2018-06-04T03:03:49.367Z,21.76
2018-06-04T03:04:49.866Z,21.82
2018-06-04T03:05:49.425Z,21.76
2018-06-04T03:06:49.706Z,21.72
2018-06-04T03:07:49.723Z,21.72
2018-06-04T03:08:49.495Z,21.75
2018-06-04T03:09:49.529Z,21.73
2018-06-04T03:10:49.795Z,21.76
2018-06-04T03:11:49.564Z,21.67
2018-06-04T03:12:49.842Z,21.67
2018-06-04T03:13:49.613Z,21.61
2018-06-04T03:14:49.892Z,21.51
2018-06-04T03:15:49.922Z,21.46
2018-06-04T03:16:49.953Z,21.46
2018-06-04T03:17:50.014Z,21.39
2018-06-04T03:18:49.768Z,21.51
2018-06-04T03:19:50.140Z,21.52
2018-06-04T03:20:50.071Z,21.48
2018-06-04T03:21:49.817Z,21.5
2018-06-04T03:22:50.099Z,21.58
2018-06-04T03:23:50.119Z,21.54
2018-06-04T03:24:50.343Z,21.54
2018-06-04T03:25:50.168Z,21.57
2018-06-04T03:26:50.193Z,21.55
2018-06-04T03:27:49.962Z,21.48
2018-06-04T03:28:49.986Z,21.61
2018-06-04T03:29:50.264Z,21.62
2018-06-04T03:30:50.293Z,21.67
2018-06-04T03:31:50.325Z,21.67
2018-06-04T03:32:50.343Z,21.61
2018-06-04T03:33:50.117Z,21.64
2018-06-04T03:34:51.880Z,21.51
2018-06-04T03:35:50.156Z,21.48
2018-06-04T03:36:50.434Z,21.54
2018-06-04T03:37:50.461Z,21.54
2018-06-04T03:38:50.230Z,21.55
2018-06-04T03:39:50.257Z,21.58
2018-06-04T03:40:50.530Z,21.64
2018-06-04T03:41:50.567Z,21.64
2018-06-04T03:42:50.333Z,21.64
2018-06-04T03:43:50.617Z,21.62
2018-06-04T03:44:50.229Z,21.67
2018-06-04T03:45:50.412Z,21.62
2018-06-04T03:46:50.431Z,21.75
2018-06-04T03:47:50.723Z,21.69
2018-06-04T03:48:50.484Z,21.69
2018-06-04T03:49:50.810Z,21.58
2018-06-04T03:50:50.788Z,21.6
2018-06-04T03:51:50.809Z,21.62
2018-06-04T03:52:50.834Z,21.57
2018-06-04T03:53:50.857Z,21.48
2018-06-04T03:54:50.865Z,21.57
2018-06-04T03:55:50.638Z,21.66
2018-06-04T03:56:50.917Z,21.61
2018-06-04T03:57:50.946Z,21.54
2018-06-04T03:58:50.962Z,21.61
2018-06-04T03:59:50.989Z,21.58
2018-06-04T04:00:51.013Z,21.62
2018-06-04T04:01:51.139Z,21.67
2018-06-04T04:02:51.136Z,21.5
2018-06-04T04:03:51.102Z,21.55
2018-06-04T04:04:51.196Z,21.5
2018-06-04T04:05:50.912Z,21.51
2018-06-04T04:06:51.179Z,21.46
2018-06-04T04:07:51.203Z,21.48
2018-06-04T04:08:51.231Z,21.43
2018-06-04T04:09:51.365Z,21.45
2018-06-04T04:10:51.027Z,21.5
2018-06-04T04:11:51.298Z,21.43
2018-06-04T04:12:51.326Z,21.4
2018-06-04T04:13:51.107Z,21.45
2018-06-04T04:14:51.409Z,21.46
2018-06-04T04:15:51.152Z,21.37
2018-06-04T04:16:51.427Z,21.42
2018-06-04T04:17:51.203Z,21.46
2018-06-04T04:18:51.482Z,21.51
2018-06-04T04:19:51.297Z,21.46
2018-06-04T04:20:51.530Z,21.55
2018-06-04T04:21:51.556Z,21.72
2018-06-04T04:22:51.580Z,21.57
2018-06-04T04:23:51.615Z,21.5
2018-06-04T04:24:51.390Z,21.51
2018-06-04T04:25:51.656Z,21.64
2018-06-04T04:26:51.428Z,21.73
2018-06-04T04:27:52.002Z,21.62
2018-06-04T04:28:51.485Z,21.64
2018-06-04T04:29:51.856Z,21.66
2018-06-04T04:30:51.785Z,21.61
2018-06-04T04:31:51.813Z,21.61
2018-06-04T04:32:51.576Z,21.72
2018-06-04T04:33:51.852Z,21.73
2018-06-04T04:34:51.937Z,21.62
2018-06-04T04:35:51.658Z,21.64
2018-06-04T04:36:51.676Z,21.54
2018-06-04T04:37:51.904Z,21.51
2018-06-04T04:38:51.724Z,21.67
2018-06-04T04:39:51.752Z,21.69
2018-06-04T04:40:51.780Z,21.73
2018-06-04T04:41:51.547Z,21.85
2018-06-04T04:42:52.080Z,21.79
2018-06-04T04:43:52.098Z,21.83
2018-06-04T04:44:52.125Z,21.7
2018-06-04T04:45:51.898Z,21.79
2018-06-04T04:46:51.920Z,21.92
2018-06-04T04:47:52.203Z,22
2018-06-04T04:48:52.226Z,21.98
2018-06-04T04:49:52.298Z,21.99
2018-06-04T04:50:52.298Z,21.83
2018-06-04T04:51:52.047Z,21.75
2018-06-04T04:52:52.338Z,21.67
2018-06-04T04:53:52.359Z,21.83
2018-06-04T04:54:52.387Z,21.93
2018-06-04T04:55:52.424Z,21.99
2018-06-04T04:56:52.180Z,21.99
2018-06-04T04:57:52.208Z,22.14
2018-06-04T04:58:52.490Z,22.08
2018-06-04T04:59:52.515Z,22.17
2018-06-04T05:00:52.547Z,22.25
2018-06-04T05:01:52.350Z,22.33
2018-06-04T05:02:52.626Z,22.23
2018-06-04T05:03:52.354Z,22.32
2018-06-04T05:04:52.681Z,22.26
2018-06-04T05:05:52.680Z,22.2
2018-06-04T05:06:52.433Z,22.29
2018-06-04T05:07:52.454Z,22.18
2018-06-04T05:08:52.747Z,22.08
2018-06-04T05:09:52.611Z,22.18
2018-06-04T05:10:52.542Z,22.36
2018-06-04T05:11:52.826Z,22.29
2018-06-04T05:12:52.336Z,22.48
2018-06-04T05:13:52.618Z,22.54
2018-06-04T05:14:52.653Z,22.41
2018-06-04T05:15:52.667Z,22.47
2018-06-04T05:16:52.695Z,22.36
2018-06-04T05:17:52.465Z,22.38
2018-06-04T05:18:53.229Z,22.35
2018-06-04T05:19:53.076Z,22.41
2018-06-04T05:20:52.791Z,22.51
2018-06-04T05:21:52.828Z,22.7
2018-06-04T05:22:53.111Z,22.78
2018-06-04T05:23:53.128Z,22.88
2018-06-04T05:24:53.156Z,22.84
2018-06-04T05:25:53.187Z,22.94
2018-06-04T05:26:53.203Z,23.02
2018-06-04T05:27:52.979Z,23.08
2018-06-04T05:28:53.261Z,23.09
2018-06-04T05:29:53.278Z,22.93
2018-06-04T05:30:53.311Z,22.84
2018-06-04T05:31:53.591Z,22.85
2018-06-04T05:32:53.363Z,22.84
2018-06-04T05:33:52.877Z,22.84
2018-06-04T05:34:53.467Z,22.8
2018-06-04T05:35:53.184Z,22.85
2018-06-04T05:36:53.209Z,22.9
2018-06-04T05:37:53.232Z,22.99
2018-06-04T05:38:53.511Z,23.08
2018-06-04T05:39:53.549Z,23.12
2018-06-04T05:40:53.574Z,23.13
2018-06-04T05:41:53.595Z,23.13
2018-06-04T05:42:53.628Z,23.25
2018-06-04T05:43:53.643Z,23.27
2018-06-04T05:44:53.672Z,23.24
2018-06-04T05:45:53.710Z,23.36
2018-06-04T05:46:53.468Z,23.44
2018-06-04T05:47:53.242Z,23.37
2018-06-04T05:48:53.276Z,23.21
2018-06-04T05:49:53.920Z,23.32
2018-06-04T05:50:53.585Z,23.4
2018-06-04T05:51:53.849Z,23.28
2018-06-04T05:52:53.883Z,23.21
2018-06-04T05:53:53.653Z,23.23
2018-06-04T05:54:53.939Z,23.25
2018-06-04T05:55:53.965Z,23.28
2018-06-04T05:56:53.984Z,23.25
2018-06-04T05:57:54.011Z,23.34
2018-06-04T05:58:53.790Z,23.36
2018-06-04T05:59:53.813Z,23.41
2018-06-04T06:00:54.091Z,23.32
2018-06-04T06:01:54.254Z,23.4
2018-06-04T06:02:54.142Z,23.36
2018-06-04T06:03:53.914Z,23.31
2018-06-04T06:04:54.251Z,22.98
2018-06-04T06:05:53.972Z,23.03
2018-06-04T06:06:53.999Z,23.1
2018-06-04T06:07:54.015Z,23.2
2018-06-04T06:08:54.048Z,23.13
2018-06-04T06:09:54.094Z,23.27
2018-06-04T06:10:54.100Z,23.34
2018-06-04T06:11:54.384Z,23.37
2018-06-04T06:12:54.407Z,23.28
2018-06-04T06:13:54.430Z,23.48
2018-06-04T06:14:54.206Z,23.61
2018-06-04T06:15:54.485Z,23.55
2018-06-04T06:16:54.258Z,23.62
2018-06-04T06:17:54.538Z,23.73
2018-06-04T06:18:54.563Z,23.81
2018-06-04T06:19:54.393Z,23.8
2018-06-04T06:20:54.379Z,23.76
2018-06-04T06:21:54.634Z,23.87
2018-06-04T06:22:54.402Z,23.81
2018-06-04T06:23:54.695Z,23.81
2018-06-04T06:24:54.460Z,23.63
2018-06-04T06:25:54.754Z,23.71
2018-06-04T06:26:54.522Z,23.54
2018-06-04T06:27:54.801Z,23.5
2018-06-04T06:28:54.827Z,23.62
2018-06-04T06:29:54.858Z,23.55
2018-06-04T06:30:55.002Z,23.62
2018-06-04T06:31:54.904Z,23.8
2018-06-04T06:32:54.679Z,23.93
2018-06-04T06:33:54.702Z,23.98
2018-06-04T06:34:55.035Z,23.92
2018-06-04T06:35:55.020Z,23.91
2018-06-04T06:36:55.059Z,23.88
2018-06-04T06:37:54.819Z,23.93
2018-06-04T06:38:54.844Z,23.98
2018-06-04T06:39:55.115Z,23.84
2018-06-04T06:40:54.890Z,23.96
2018-06-04T06:41:54.661Z,23.93
2018-06-04T06:42:55.200Z,23.93
2018-06-04T06:43:54.715Z,23.83
2018-06-04T06:44:55.016Z,23.74
2018-06-04T06:45:55.273Z,23.86
2018-06-04T06:46:55.313Z,23.77
2018-06-04T06:47:55.335Z,23.78
2018-06-04T06:48:55.101Z,23.88
2018-06-04T06:49:55.173Z,23.91
2018-06-04T06:50:55.156Z,23.91
2018-06-04T06:51:55.177Z,24.05
2018-06-04T06:52:55.224Z,24.11
2018-06-04T06:53:54.977Z,24.2
2018-06-04T06:54:55.633Z,24.4
2018-06-04T06:55:55.542Z,24.43
2018-06-04T06:56:55.575Z,24.6
2018-06-04T06:57:55.343Z,24.53
2018-06-04T06:58:55.602Z,24.65
2018-06-04T06:59:55.733Z,24.65
2018-06-04T07:00:55.662Z,24.73
2018-06-04T07:01:55.483Z,24.68
2018-06-04T07:02:55.746Z,24.73
2018-06-04T07:03:55.503Z,24.55
2018-06-04T07:04:55.420Z,24.5
2018-06-04T07:05:55.804Z,24.53
2018-06-04T07:06:55.839Z,24.61
2018-06-04T07:07:55.863Z,24.63
2018-06-04T07:08:55.376Z,24.51
2018-06-04T07:09:55.913Z,24.39
2018-06-04T07:10:55.942Z,24.53
2018-06-04T07:11:55.968Z,24.55
2018-06-04T07:12:55.742Z,24.63
2018-06-04T07:13:55.767Z,24.74
2018-06-04T07:14:55.795Z,24.8
2018-06-04T07:15:55.833Z,24.93
2018-06-04T07:16:55.848Z,24.93
2018-06-04T07:17:56.137Z,25.07
2018-06-04T07:18:56.179Z,24.95
2018-06-04T07:19:56.243Z,25.11
2018-06-04T07:20:55.963Z,25.13
2018-06-04T07:21:56.240Z,25.11
2018-06-04T07:22:56.266Z,25.04
2018-06-04T07:23:56.048Z,25.11
2018-06-04T07:24:56.325Z,25.22
2018-06-04T07:25:56.349Z,25.4
2018-06-04T07:26:56.468Z,25.43
2018-06-04T07:27:56.398Z,25.21
2018-06-04T07:28:56.419Z,25.18
2018-06-04T07:29:56.202Z,25.04
2018-06-04T07:30:56.225Z,25.11
2018-06-04T07:31:56.514Z,25.08
2018-06-04T07:32:56.535Z,25.4
2018-06-04T07:33:56.311Z,25.47
2018-06-04T07:34:56.777Z,25.69
2018-06-04T07:35:56.359Z,25.69
2018-06-04T07:36:56.659Z,25.55
2018-06-04T07:37:56.676Z,25.46
2018-06-04T07:38:56.709Z,25.68
2018-06-04T07:39:56.735Z,25.5
2018-06-04T07:40:56.804Z,25.78
2018-06-04T07:41:56.794Z,25.8
2018-06-04T07:42:56.858Z,25.69
2018-06-04T07:43:56.847Z,25.83
2018-06-04T07:44:56.612Z,25.87
2018-06-04T07:45:56.910Z,26.03
2018-06-04T07:46:56.669Z,26.15
2018-06-04T07:47:56.971Z,26.23
2018-06-04T07:48:56.724Z,26.18
2018-06-04T07:49:57.265Z,26.23
2018-06-04T07:50:57.053Z,26.29
2018-06-04T07:51:57.062Z,26.36
2018-06-04T07:52:56.836Z,26.37
2018-06-04T07:53:57.122Z,26.29
2018-06-04T07:54:57.147Z,26.33
2018-06-04T07:55:56.919Z,26.47
2018-06-04T07:56:57.200Z,26.58
2018-06-04T07:57:56.972Z,26.62
2018-06-04T07:58:56.999Z,26.63
2018-06-04T07:59:58.284Z,26.7
2018-06-04T08:00:57.087Z,26.77
2018-06-04T08:01:57.085Z,26.74
2018-06-04T08:02:57.368Z,26.81
2018-06-04T08:03:57.405Z,26.95
2018-06-04T08:04:57.470Z,26.9
2018-06-04T08:05:57.197Z,26.93
2018-06-04T08:06:57.231Z,26.89
2018-06-04T08:07:57.506Z,26.81
2018-06-04T08:08:57.536Z,26.81
2018-06-04T08:09:57.592Z,26.93
2018-06-04T08:10:57.597Z,26.74
2018-06-04T08:11:57.620Z,26.78
2018-06-04T08:12:57.651Z,26.85
2018-06-04T08:13:57.677Z,26.96
2018-06-04T08:14:57.716Z,27
2018-06-04T08:15:57.732Z,26.95
2018-06-04T08:16:57.777Z,27.03
2018-06-04T08:17:57.837Z,27.14
2018-06-04T08:18:57.813Z,27.08
2018-06-04T08:19:57.646Z,27.18
2018-06-04T08:20:57.866Z,27.17
2018-06-04T08:21:57.901Z,27.11
2018-06-04T08:22:57.933Z,27.22
2018-06-04T08:23:57.529Z,27.35
2018-06-04T08:24:58.032Z,27.48
2018-06-04T08:25:58.016Z,27.4
2018-06-04T08:26:58.052Z,27.42
2018-06-04T08:27:58.067Z,27.49
2018-06-04T08:28:58.091Z,27.42
2018-06-04T08:29:58.132Z,27.42
2018-06-04T08:30:58.159Z,27.48
2018-06-04T08:31:58.192Z,27.58
2018-06-04T08:32:58.214Z,27.68
2018-06-04T08:33:58.238Z,27.67
2018-06-04T08:34:58.317Z,27.8
2018-06-04T08:35:58.298Z,27.87
2018-06-04T08:36:58.073Z,27.96
2018-06-04T08:37:58.363Z,28.12
2018-06-04T08:38:58.387Z,28.04
2018-06-04T08:39:58.411Z,28.02
2018-06-04T08:40:58.443Z,28.11
2018-06-04T08:41:58.471Z,28.27
2018-06-04T08:42:58.501Z,28.17
2018-06-04T08:43:58.272Z,28.37
2018-06-04T08:44:58.551Z,28.54
2018-06-04T08:45:58.433Z,28.51
2018-06-04T08:46:58.612Z,28.6
2018-06-04T08:47:58.645Z,28.66
2018-06-04T08:48:58.677Z,28.63
2018-06-04T08:49:58.700Z,28.51
2018-06-04T08:50:58.832Z,28.54
2018-06-04T08:51:58.750Z,28.67
2018-06-04T08:52:58.783Z,28.74
2018-06-04T08:53:58.855Z,28.74
2018-06-04T08:54:58.832Z,28.85
2018-06-04T08:55:58.872Z,28.86
2018-06-04T08:56:58.892Z,28.89
2018-06-04T08:57:58.925Z,28.79
2018-06-04T08:58:58.961Z,28.91
2018-06-04T08:59:58.738Z,28.96
2018-06-04T09:00:59.025Z,29.01
2018-06-04T09:01:59.057Z,29.12
2018-06-04T09:02:58.826Z,29.17
2018-06-04T09:03:58.857Z,29.1
2018-06-04T09:04:58.885Z,29.07
2018-06-04T09:05:59.173Z,28.98
2018-06-04T09:06:59.253Z,29.1
2018-06-04T09:07:59.226Z,29.17
2018-06-04T09:08:59.321Z,29.14
2018-06-04T09:09:59.501Z,29.32
2018-06-04T09:10:59.316Z,29.34
2018-06-04T09:11:59.344Z,29.29
2018-06-04T09:12:59.374Z,29.27
2018-06-04T09:13:59.406Z,29.47
2018-06-04T09:14:59.177Z,29.41
2018-06-04T09:15:59.461Z,29.39
2018-06-04T09:16:59.238Z,29.49
2018-06-04T09:17:59.519Z,29.51
2018-06-04T09:18:59.559Z,29.53
2018-06-04T09:19:59.600Z,29.57
2018-06-04T09:20:59.616Z,29.72
2018-06-04T09:21:59.720Z,29.72
2018-06-04T09:22:59.687Z,29.57
2018-06-04T09:23:59.488Z,29.81
2018-06-04T09:24:59.726Z,29.69
2018-06-04T09:25:59.750Z,29.75
2018-06-04T09:26:59.531Z,29.72
2018-06-04T09:27:59.556Z,29.45
2018-06-04T09:28:59.888Z,29.56
2018-06-04T09:29:59.871Z,29.69
2018-06-04T09:30:59.903Z,29.76
2018-06-04T09:31:59.927Z,29.82
2018-06-04T09:32:59.970Z,29.81
2018-06-04T09:34:00.041Z,29.78
2018-06-04T09:35:00.029Z,29.71
2018-06-04T09:36:00.034Z,29.78
2018-06-04T09:36:59.814Z,29.93
2018-06-04T09:37:59.838Z,30
2018-06-04T09:39:00.124Z,29.94
2018-06-04T09:40:00.264Z,29.95
2018-06-04T09:41:00.207Z,29.72
2018-06-04T09:42:00.234Z,29.76
2018-06-04T09:43:00.009Z,29.78
2018-06-04T09:43:59.779Z,29.81
2018-06-04T09:45:00.321Z,29.98
2018-06-04T09:46:00.351Z,30.34
2018-06-04T09:47:00.376Z,30.72
2018-06-04T09:48:00.153Z,31.12
2018-06-04T09:49:00.538Z,31.61
2018-06-04T09:50:00.508Z,31.89
2018-06-04T09:51:00.243Z,31.99
2018-06-04T09:52:00.528Z,32.18
2018-06-04T09:53:00.310Z,32.43
2018-06-04T09:54:00.470Z,32.51
2018-06-04T09:55:00.374Z,32.58
2018-06-04T09:56:00.657Z,32.89
2018-06-04T09:57:00.431Z,32.89
2018-06-04T09:58:00.728Z,32.95
2018-06-04T09:59:00.494Z,32.82
2018-06-04T10:00:00.530Z,32.89
2018-06-04T10:01:00.302Z,33
2018-06-04T10:02:00.621Z,33.42
2018-06-04T10:03:01.079Z,33.64
2018-06-04T10:04:00.704Z,33.61
2018-06-04T10:05:00.930Z,33.96
2018-06-04T10:06:00.967Z,33.94
2018-06-04T10:07:00.742Z,34.05
2018-06-04T10:08:01.037Z,34.16
2018-06-04T10:09:01.065Z,33.96
2018-06-04T10:10:00.846Z,34.32
2018-06-04T10:11:01.132Z,34.61
2018-06-04T10:12:01.169Z,34.97
2018-06-04T10:13:01.200Z,35.19
2018-06-04T10:14:00.980Z,35.45
2018-06-04T10:15:01.261Z,34.43
2018-06-04T10:16:01.291Z,34.18
2018-06-04T10:17:01.336Z,34.39
2018-06-04T10:18:01.398Z,34.61
2018-06-04T10:19:01.452Z,34.78
2018-06-04T10:20:01.176Z,35.18
2018-06-04T10:21:01.462Z,35.52
2018-06-04T10:22:01.553Z,35.66
2018-06-04T10:23:01.540Z,35.71
2018-06-04T10:24:01.312Z,35.58
2018-06-04T10:25:01.605Z,35.41
2018-06-04T10:26:01.639Z,35.23
2018-06-04T10:27:01.701Z,35.52
2018-06-04T10:28:01.874Z,35.49
2018-06-04T10:29:01.736Z,35.82
2018-06-04T10:30:01.511Z,36.14
2018-06-04T10:31:01.805Z,36.51
2018-06-04T10:32:01.835Z,36.64
2018-06-04T10:33:01.872Z,36.4
2018-06-04T10:34:01.705Z,36.25
2018-06-04T10:35:01.669Z,36.58
2018-06-04T10:36:01.958Z,36.83
2018-06-04T10:37:01.740Z,37.3
2018-06-04T10:38:02.041Z,37.56
2018-06-04T10:39:01.569Z,37.65
2018-06-04T10:40:01.865Z,37.99
2018-06-04T10:41:01.897Z,37.97
2018-06-04T10:42:01.928Z,37.68
2018-06-04T10:43:01.951Z,37.55
2018-06-04T10:44:02.235Z,37.32
2018-06-04T10:45:02.018Z,37.35
2018-06-04T10:46:02.316Z,37.6
2018-06-04T10:47:02.349Z,37.77
2018-06-04T10:48:02.372Z,37.87
2018-06-04T10:49:02.464Z,37.84
2018-06-04T10:50:02.189Z,37.89
2018-06-04T10:51:01.986Z,37.87
2018-06-04T10:52:02.511Z,37.87
2018-06-04T10:53:02.558Z,38.01
2018-06-04T10:54:02.593Z,37.84
2018-06-04T10:55:02.383Z,37.94
2018-06-04T10:56:02.409Z,37.77
2018-06-04T10:57:02.453Z,38.05
2018-06-04T10:58:02.727Z,38.34
2018-06-04T10:59:02.778Z,38.55
2018-06-04T11:00:02.805Z,37.37
2018-06-04T11:01:02.842Z,37.3
2018-06-04T11:02:02.871Z,37.35
2018-06-04T11:03:02.414Z,37.53
2018-06-04T11:04:02.585Z,37.82
2018-06-04T11:05:03.208Z,38.45
2018-06-04T11:06:03.010Z,38.69
2018-06-04T11:07:03.045Z,39.15
2018-06-04T11:08:03.080Z,39.12
2018-06-04T11:09:03.120Z,39.12
2018-06-04T11:10:03.155Z,38.77
2018-06-04T11:11:03.184Z,38.8
2018-06-04T11:12:03.220Z,38.89
2018-06-04T11:13:03.258Z,39.33
2018-06-04T11:14:03.357Z,39.59
2018-06-04T11:15:03.331Z,39.7
2018-06-04T11:16:03.113Z,39.33
2018-06-04T11:17:03.408Z,39.06
2018-06-04T11:18:02.926Z,38.71
2018-06-04T11:19:03.273Z,38.77
2018-06-04T11:20:03.252Z,39.17
2018-06-04T11:21:03.540Z,39.18
2018-06-04T11:22:03.071Z,39.24
2018-06-04T11:23:03.360Z,39.58
2018-06-04T11:24:03.704Z,39.97
2018-06-04T11:25:03.684Z,40.2
2018-06-04T11:26:03.935Z,40.44
2018-06-04T11:27:03.781Z,40.34
2018-06-04T11:28:03.800Z,40.47
2018-06-04T11:29:03.626Z,40.63
2018-06-04T11:30:03.615Z,40.81
2018-06-04T11:31:03.906Z,41.19
2018-06-04T11:32:03.683Z,41.37
2018-06-04T11:33:03.971Z,41.78
2018-06-04T11:34:03.854Z,41.8
2018-06-04T11:35:04.045Z,41.65
2018-06-04T11:36:03.576Z,41.22
2018-06-04T11:37:04.120Z,41.78
2018-06-04T11:38:03.898Z,41.19
2018-06-04T11:39:04.201Z,40.5
2018-06-04T11:40:04.247Z,40.08
2018-06-04T11:41:04.267Z,40.18
2018-06-04T11:42:04.308Z,40.5
2018-06-04T11:43:04.339Z,40.81
2018-06-04T11:44:04.539Z,41.19
2018-06-04T11:45:04.431Z,41.59
2018-06-04T11:46:04.199Z,41.53
2018-06-04T11:47:04.229Z,41.1
2018-06-04T11:48:04.529Z,41.04
2018-06-04T11:49:04.621Z,41.77
2018-06-04T11:50:04.595Z,42.39
2018-06-04T11:51:04.401Z,42.51
2018-06-04T11:52:04.413Z,42.51
2018-06-04T11:53:04.456Z,42.57
2018-06-04T11:54:04.752Z,42.48
2018-06-04T11:55:04.527Z,42.26
2018-06-04T11:56:04.817Z,42.21
2018-06-04T11:57:04.862Z,42.54
2018-06-04T11:58:04.889Z,42.95
2018-06-04T11:59:04.676Z,43.2
2018-06-04T12:00:04.972Z,42.66
2018-06-04T12:01:04.748Z,42.62
2018-06-04T12:02:04.529Z,42.48
2018-06-04T12:03:05.073Z,42.84
2018-06-04T12:04:05.174Z,43.04
2018-06-04T12:05:05.196Z,42.99
2018-06-04T12:06:05.187Z,43.18
2018-06-04T12:07:04.982Z,43.46
2018-06-04T12:08:05.253Z,43.38
2018-06-04T12:09:05.291Z,43.57
2018-06-04T12:10:05.328Z,43.8
2018-06-04T12:11:05.362Z,43.53
2018-06-04T12:12:05.412Z,43.11
2018-06-04T12:13:05.442Z,42.86
2018-06-04T12:14:05.486Z,43.23
2018-06-04T12:15:05.526Z,43.48
2018-06-04T12:16:05.563Z,43.72
2018-06-04T12:17:05.600Z,43.62
2018-06-04T12:18:05.388Z,42.97
2018-06-04T12:19:05.720Z,43.15
2018-06-04T12:20:05.710Z,43.48
2018-06-04T12:21:05.755Z,43.99
2018-06-04T12:22:05.786Z,44.48
2018-06-04T12:23:05.820Z,44.69
2018-06-04T12:24:05.857Z,44.37
2018-06-04T12:25:05.645Z,45.05
2018-06-04T12:26:05.938Z,45.2
2018-06-04T12:27:05.721Z,45.46
2018-06-04T12:28:06.021Z,45.74
2018-06-04T12:29:05.793Z,45.48
2018-06-04T12:30:05.831Z,44.83
2018-06-04T12:31:05.871Z,44.54
2018-06-04T12:32:05.913Z,44.71
2018-06-04T12:33:05.946Z,44.76
2018-06-04T12:34:06.033Z,44.37
2018-06-04T12:35:06.037Z,43.84
2018-06-04T12:36:06.317Z,44.08
2018-06-04T12:37:06.099Z,44.39
2018-06-04T12:38:06.387Z,44.37
2018-06-04T12:39:06.429Z,44.94
2018-06-04T12:40:06.233Z,45.05
2018-06-04T12:41:06.265Z,45.09
2018-06-04T12:42:06.307Z,45.72
2018-06-04T12:43:06.331Z,45.41
2018-06-04T12:44:06.119Z,45.27
2018-06-04T12:45:06.409Z,45.1
2018-06-04T12:46:06.445Z,45.09
2018-06-04T12:47:06.483Z,44.71
2018-06-04T12:48:06.583Z,44.98
2018-06-04T12:49:06.605Z,45.34
2018-06-04T12:50:06.351Z,45.41
2018-06-04T12:51:06.384Z,45.8
2018-06-04T12:52:06.925Z,46.03
2018-06-04T12:53:06.713Z,45.88
2018-06-04T12:54:06.776Z,46.27
2018-06-04T12:55:07.044Z,46
2018-06-04T12:56:07.121Z,45.82